Time;durP1;ratioP1;P1;durP2;ratioP2;P2;SDS_P1;SDS_P2;PMS_P1;PMS_P2;Temp;Humidity;BMP_temperature;BMP_pressure;BME280_temperature;BME280_humidity;BME280_pressure;Samples;Min_cycle;Max_cycle;Signal;HPM_P1;HPM_P2
2023/07/26 00:02:25;;;;;;;20.33;13.20;;;;;;;;;;4974340;28;20482;-71
2023/07/26 00:04:51;;;;;;;17.08;13.25;;;;;;;;;;4974038;28;20047;-70
2023/07/26 00:07:17;;;;;;;28.15;13.45;;;;;;;;;;4973809;28;20178;-71
2023/07/26 00:09:43;;;;;;;20.30;13.25;;;;;;;;;;4974117;28;20078;-71
2023/07/26 00:12:09;;;;;;;20.88;13.13;;;;;;;;;;4973871;28;20014;-71
2023/07/26 00:14:35;;;;;;;22.70;14.02;;;;;;;;;;4973970;28;20029;-71
2023/07/26 00:17:02;;;;;;;23.25;14.05;;;;;;;;;;4973716;28;20081;-71
2023/07/26 00:19:28;;;;;;;24.35;14.30;;;;;;;;;;4973965;28;20025;-71
2023/07/26 00:21:54;;;;;;;17.45;12.50;;;;;;;;;;4973586;28;20486;-71
2023/07/26 00:24:20;;;;;;;23.50;13.25;;;;;;;;;;4973824;28;20101;-71
2023/07/26 00:26:46;;;;;;;20.10;12.85;;;;;;;;;;4972285;28;20022;-71
2023/07/26 00:29:12;;;;;;;22.70;13.30;;;;;;;;;;4973344;28;20490;-71
2023/07/26 00:31:38;;;;;;;16.65;11.95;;;;;;;;;;4973597;28;20037;-71
2023/07/26 00:34:04;;;;;;;21.13;12.77;;;;;;;;;;4973768;28;20014;-71
2023/07/26 00:36:30;;;;;;;21.58;12.90;;;;;;;;;;4972116;28;20026;-71
2023/07/26 00:38:56;;;;;;;19.42;12.32;;;;;;;;;;4973186;28;20027;-71
2023/07/26 00:41:22;;;;;;;21.05;12.13;;;;;;;;;;4973380;28;20026;-71
2023/07/26 00:43:48;;;;;;;26.15;13.77;;;;;;;;;;4971975;28;20038;-71
2023/07/26 00:46:14;;;;;;;21.52;11.70;;;;;;;;;;4973204;28;20027;-71
2023/07/26 00:48:40;;;;;;;18.58;12.05;;;;;;;;;;4971370;28;20045;-71
2023/07/26 00:51:07;;;;;;;18.88;11.40;;;;;;;;;;4973205;28;20066;-71
2023/07/26 00:53:33;;;;;;;21.17;10.82;;;;;;;;;;4973161;28;20023;-72
2023/07/26 00:55:59;;;;;;;17.08;11.07;;;;;;;;;;4972924;28;20110;-71
2023/07/26 00:58:25;;;;;;;24.13;11.38;;;;;;;;;;4972429;28;20105;-71
2023/07/26 01:00:51;;;;;;;20.23;9.88;;;;;;;;;;4972939;28;20023;-71
2023/07/26 01:03:17;;;;;;;20.83;11.48;;;;;;;;;;4973008;28;20102;-71
2023/07/26 01:05:55;;;;;;;15.13;10.30;;;;;;;;;;4972920;28;20498;-72
2023/07/26 01:08:31;;;;;;;14.23;10.07;;;;;;;;;;4971331;28;20027;-71
2023/07/26 01:10:59;;;;;;;17.42;9.48;;;;;;;;;;4972853;28;20109;-71
2023/07/26 01:13:29;;;;;;;16.80;9.00;;;;;;;;;;4972761;28;20499;-70
2023/07/26 01:15:55;;;;;;;20.58;10.30;;;;;;;;;;4972726;28;20030;-70
2023/07/26 01:18:21;;;;;;;29.00;9.48;;;;;;;;;;4971215;28;20023;-71
2023/07/26 01:20:47;;;;;;;14.15;8.07;;;;;;;;;;4972696;28;20082;-73
2023/07/26 01:23:13;;;;;;;22.23;9.10;;;;;;;;;;4964978;28;20022;-73
2023/07/26 01:25:39;;;;;;;16.08;8.35;;;;;;;;;;4972859;28;20030;-73
2023/07/26 01:28:05;;;;;;;14.88;7.38;;;;;;;;;;4972103;28;20027;-72
2023/07/26 01:30:32;;;;;;;16.15;7.20;;;;;;;;;;4972742;28;20054;-73
2023/07/26 01:33:00;;;;;;;11.50;6.55;;;;;;;;;;4972645;28;20196;-72
2023/07/26 01:35:27;;;;;;;10.65;6.60;;;;;;;;;;4972795;28;20110;-72
2023/07/26 01:37:54;;;;;;;19.83;7.68;;;;;;;;;;4972254;28;20023;-71
2023/07/26 01:40:20;;;;;;;14.45;6.38;;;;;;;;;;4972457;28;20026;-72
2023/07/26 01:42:46;;;;;;;15.43;6.47;;;;;;;;;;4972429;28;20093;-72
2023/07/26 01:45:12;;;;;;;16.27;6.00;;;;;;;;;;4972633;28;20061;-71
2023/07/26 01:47:38;;;;;;;13.73;6.28;;;;;;;;;;4972188;28;20544;-72
2023/07/26 01:50:05;;;;;;;12.88;5.88;;;;;;;;;;4972175;28;20505;-72
2023/07/26 01:52:31;;;;;;;14.57;5.78;;;;;;;;;;4972256;28;20091;-72
2023/07/26 01:54:57;;;;;;;17.17;5.63;;;;;;;;;;4972591;28;20019;-72
2023/07/26 01:57:25;;;;;;;14.10;5.68;;;;;;;;;;4971914;28;20031;-71
2023/07/26 01:59:51;;;;;;;16.38;5.65;;;;;;;;;;4972290;28;20023;-72
2023/07/26 02:02:17;;;;;;;11.30;5.50;;;;;;;;;;4972392;28;20019;-70
2023/07/26 02:04:43;;;;;;;16.48;6.65;;;;;;;;;;4972150;28;20078;-70
2023/07/26 02:07:09;;;;;;;11.43;5.60;;;;;;;;;;4972181;28;20027;-70
2023/07/26 02:09:35;;;;;;;13.00;5.82;;;;;;;;;;4975503;28;20161;-69
2023/07/26 02:12:01;;;;;;;10.25;5.47;;;;;;;;;;4976605;28;20474;-70
2023/07/26 02:14:27;;;;;;;14.23;6.18;;;;;;;;;;4975231;28;20073;-70
2023/07/26 02:16:53;;;;;;;18.42;5.90;;;;;;;;;;4975800;28;20027;-70
2023/07/26 02:19:19;;;;;;;17.80;6.90;;;;;;;;;;4975926;28;20025;-71
2023/07/26 02:21:45;;;;;;;15.90;6.85;;;;;;;;;;4976138;28;20022;-70
2023/07/26 02:24:12;;;;;;;19.80;7.57;;;;;;;;;;4975784;28;20030;-70
2023/07/26 02:26:38;;;;;;;19.92;7.07;;;;;;;;;;4975788;28;20035;-69
2023/07/26 02:29:04;;;;;;;16.38;7.20;;;;;;;;;;4975871;28;20161;-70
2023/07/26 02:31:30;;;;;;;17.58;7.78;;;;;;;;;;4975837;28;20054;-70
2023/07/26 02:33:56;;;;;;;17.73;7.43;;;;;;;;;;4975697;28;20046;-70
2023/07/26 02:36:23;;;;;;;12.48;7.38;;;;;;;;;;4974449;28;20058;-70
2023/07/26 02:38:49;;;;;;;19.55;7.70;;;;;;;;;;4973897;28;20035;-70
2023/07/26 02:41:15;;;;;;;16.83;7.38;;;;;;;;;;4975595;28;20026;-70
2023/07/26 02:43:41;;;;;;;21.35;7.40;;;;;;;;;;4975568;28;20550;-70
2023/07/26 02:46:07;;;;;;;18.65;7.20;;;;;;;;;;4974440;28;20033;-70
2023/07/26 02:48:33;;;;;;;16.40;6.80;;;;;;;;;;4975307;28;20015;-70
2023/07/26 02:50:59;;;;;;;19.33;7.50;;;;;;;;;;4975463;28;20031;-72
2023/07/26 02:53:25;;;;;;;14.02;6.55;;;;;;;;;;4975138;28;20015;-71
2023/07/26 02:55:51;;;;;;;16.80;5.97;;;;;;;;;;4975956;28;20023;-71
2023/07/26 02:58:17;;;;;;;18.65;7.25;;;;;;;;;;4975128;28;20069;-71
2023/07/26 03:00:43;;;;;;;13.73;6.68;;;;;;;;;;4975100;28;20022;-71
2023/07/26 03:03:09;;;;;;;13.93;6.18;;;;;;;;;;4975043;28;20062;-71
2023/07/26 03:05:38;;;;;;;16.45;5.75;;;;;;;;;;4975166;28;20054;-71
2023/07/26 03:08:04;;;;;;;17.20;5.47;;;;;;;;;;4974791;28;20394;-71
2023/07/26 03:10:30;;;;;;;20.33;6.90;;;;;;;;;;4975216;28;20065;-72
2023/07/26 03:12:56;;;;;;;14.93;5.72;;;;;;;;;;4975265;28;20027;-72
2023/07/26 03:15:22;;;;;;;17.25;8.40;;;;;;;;;;4975164;28;20019;-72
2023/07/26 03:17:48;;;;;;;10.95;5.55;;;;;;;;;;4974849;28;20022;-71
2023/07/26 03:20:14;;;;;;;17.67;6.05;;;;;;;;;;4973916;28;20094;-71
2023/07/26 03:22:40;;;;;;;22.77;7.60;;;;;;;;;;4973260;28;20023;-71
2023/07/26 03:25:07;;;;;;;19.63;8.73;;;;;;;;;;4974902;28;20030;-71
2023/07/26 03:27:33;;;;;;;21.25;6.70;;;;;;;;;;4974528;28;20030;-72
2023/07/26 03:29:59;;;;;;;14.77;6.18;;;;;;;;;;4974718;28;20042;-73
2023/07/26 03:32:25;;;;;;;14.63;5.50;;;;;;;;;;4974705;28;20030;-72
2023/07/26 03:34:51;;;;;;;13.90;5.60;;;;;;;;;;4974498;28;20019;-71
2023/07/26 03:37:17;;;;;;;22.85;5.95;;;;;;;;;;4974225;28;20428;-71
2023/07/26 03:39:43;;;;;;;15.02;6.55;;;;;;;;;;4974637;28;20126;-71
2023/07/26 03:42:09;;;;;;;18.27;5.70;;;;;;;;;;4973445;28;20074;-72
2023/07/26 03:44:35;;;;;;;14.23;5.22;;;;;;;;;;4974470;28;20027;-71
2023/07/26 03:47:01;;;;;;;12.90;5.30;;;;;;;;;;4974114;28;20030;-72
2023/07/26 03:49:27;;;;;;;11.48;5.05;;;;;;;;;;4974284;28;20078;-72
2023/07/26 03:51:53;;;;;;;14.73;4.90;;;;;;;;;;4974045;28;20348;-72
2023/07/26 03:54:19;;;;;;;22.45;5.65;;;;;;;;;;4974573;28;20046;-72
2023/07/26 03:56:45;;;;;;;17.45;5.68;;;;;;;;;;4973933;28;20482;-72
2023/07/26 03:59:11;;;;;;;11.70;5.05;;;;;;;;;;4974074;28;20026;-72
2023/07/26 04:01:37;;;;;;;10.30;4.20;;;;;;;;;;4972671;28;20046;-72
2023/07/26 04:04:03;;;;;;;12.57;4.07;;;;;;;;;;4973892;28;20023;-72
2023/07/26 04:06:30;;;;;;;18.70;4.13;;;;;;;;;;4973814;28;20026;-72
2023/07/26 04:08:56;;;;;;;15.57;4.43;;;;;;;;;;4972512;28;20015;-72
2023/07/26 04:11:22;;;;;;;15.77;4.50;;;;;;;;;;4973960;28;20102;-72
2023/07/26 04:13:48;;;;;;;14.98;4.80;;;;;;;;;;4974145;28;20026;-70
2023/07/26 04:16:18;;;;;;;8.77;3.97;;;;;;;;;;4973884;28;20018;-70
2023/07/26 04:18:44;;;;;;;13.57;4.53;;;;;;;;;;4973481;28;20498;-71
2023/07/26 04:21:19;;;;;;;15.75;3.60;;;;;;;;;;4973667;28;20027;-72
2023/07/26 04:23:45;;;;;;;11.75;3.45;;;;;;;;;;4973828;28;20538;-71
2023/07/26 04:26:11;;;;;;;11.50;2.95;;;;;;;;;;4973699;28;20027;-72
2023/07/26 04:28:38;;;;;;;14.25;3.25;;;;;;;;;;4973191;28;20051;-71
2023/07/26 04:31:04;;;;;;;11.98;3.53;;;;;;;;;;4974255;28;20118;-72
2023/07/26 04:33:30;;;;;;;15.38;3.35;;;;;;;;;;4976388;28;20030;-73
2023/07/26 04:35:57;;;;;;;10.75;3.78;;;;;;;;;;4979674;28;20027;-72
2023/07/26 04:38:23;;;;;;;13.52;3.83;;;;;;;;;;4978709;28;20019;-72
2023/07/26 04:40:49;;;;;;;23.30;3.78;;;;;;;;;;4977951;28;20057;-72
2023/07/26 04:43:21;;;;;;;12.23;3.42;;;;;;;;;;4978688;28;20399;-72
2023/07/26 04:45:48;;;;;;;24.38;3.65;;;;;;;;;;4976333;28;20479;-72
2023/07/26 04:48:14;;;;;;;16.55;3.95;;;;;;;;;;4967589;28;20054;-73
2023/07/26 04:50:40;;;;;;;10.85;3.60;;;;;;;;;;4975768;28;20046;-73
2023/07/26 04:53:06;;;;;;;13.63;3.35;;;;;;;;;;4976284;28;20019;-73
2023/07/26 04:55:32;;;;;;;14.13;3.65;;;;;;;;;;4976057;28;20094;-71
2023/07/26 04:57:58;;;;;;;12.95;3.20;;;;;;;;;;4975282;28;20054;-72
2023/07/26 05:00:24;;;;;;;12.20;2.83;;;;;;;;;;4975086;28;20050;-72
2023/07/26 05:02:50;;;;;;;9.57;2.85;;;;;;;;;;4974447;28;20030;-73
2023/07/26 05:05:16;;;;;;;11.02;2.83;;;;;;;;;;4976219;28;20027;-72
2023/07/26 05:07:43;;;;;;;13.45;3.08;;;;;;;;;;4976426;28;20034;-72
2023/07/26 05:10:09;;;;;;;9.48;2.40;;;;;;;;;;4975969;28;20053;-73
2023/07/26 05:12:35;;;;;;;15.23;2.85;;;;;;;;;;4973290;28;20130;-72
2023/07/26 05:15:01;;;;;;;10.50;3.28;;;;;;;;;;4972831;28;20033;-72
2023/07/26 05:17:27;;;;;;;13.02;2.42;;;;;;;;;;4972545;28;20026;-72
2023/07/26 05:19:53;;;;;;;4.60;2.25;;;;;;;;;;4972658;28;20026;-72
2023/07/26 05:22:19;;;;;;;11.40;2.83;;;;;;;;;;4972832;28;20034;-72
2023/07/26 05:24:45;;;;;;;8.35;2.40;;;;;;;;;;4972622;28;20094;-73
2023/07/26 05:27:11;;;;;;;9.35;2.15;;;;;;;;;;4972152;28;20030;-72
2023/07/26 05:29:37;;;;;;;8.63;1.88;;;;;;;;;;4972903;28;20094;-72
2023/07/26 05:32:03;;;;;;;16.73;2.55;;;;;;;;;;4972339;28;20026;-72
2023/07/26 05:34:29;;;;;;;7.63;1.98;;;;;;;;;;4972562;28;20030;-72
2023/07/26 05:36:55;;;;;;;13.38;2.50;;;;;;;;;;4972209;28;20025;-71
2023/07/26 05:39:21;;;;;;;7.55;1.50;;;;;;;;;;4972207;28;20401;-72
2023/07/26 05:41:47;;;;;;;7.90;2.38;;;;;;;;;;4972685;28;20147;-72
2023/07/26 05:44:13;;;;;;;15.57;2.80;;;;;;;;;;4970820;28;20027;-72
2023/07/26 05:46:39;;;;;;;12.35;2.67;;;;;;;;;;4971938;28;20031;-72
2023/07/26 05:49:09;;;;;;;13.15;2.83;;;;;;;;;;4972312;28;20026;-72
2023/07/26 05:51:44;;;;;;;11.85;2.58;;;;;;;;;;4972764;28;20482;-72
2023/07/26 05:54:12;;;;;;;8.13;1.90;;;;;;;;;;4972550;28;20022;-72
2023/07/26 05:56:38;;;;;;;11.57;1.90;;;;;;;;;;4971324;28;20102;-73
2023/07/26 05:59:04;;;;;;;8.48;2.47;;;;;;;;;;4971753;28;20090;-71
2023/07/26 06:01:30;;;;;;;8.35;1.90;;;;;;;;;;4972053;28;20034;-75
2023/07/26 06:03:56;;;;;;;14.60;2.72;;;;;;;;;;4971533;28;20023;-72
2023/07/26 06:06:22;;;;;;;9.88;2.83;;;;;;;;;;4972104;28;20034;-72
2023/07/26 06:08:50;;;;;;;9.43;1.98;;;;;;;;;;4970406;28;20019;-73
2023/07/26 06:11:17;;;;;;;10.45;1.65;;;;;;;;;;4971926;28;20022;-71
2023/07/26 06:13:43;;;;;;;10.65;2.83;;;;;;;;;;4972278;28;20023;-72
2023/07/26 06:16:09;;;;;;;10.07;2.08;;;;;;;;;;4971987;28;20027;-73
2023/07/26 06:18:35;;;;;;;12.32;2.20;;;;;;;;;;4971315;28;20058;-71
2023/07/26 06:21:01;;;;;;;7.38;2.35;;;;;;;;;;4970340;28;20467;-73
2023/07/26 06:23:27;;;;;;;7.20;1.95;;;;;;;;;;4972068;28;20110;-72
2023/07/26 06:25:53;;;;;;;13.10;2.78;;;;;;;;;;4971268;28;20023;-72
2023/07/26 06:28:19;;;;;;;8.60;1.95;;;;;;;;;;4970886;28;20110;-71
2023/07/26 06:30:45;;;;;;;9.23;2.22;;;;;;;;;;4971584;28;20023;-71
2023/07/26 06:33:11;;;;;;;13.30;2.25;;;;;;;;;;4971797;28;20015;-71
2023/07/26 06:35:37;;;;;;;11.27;2.17;;;;;;;;;;4971798;28;20147;-71
2023/07/26 06:38:03;;;;;;;16.25;3.50;;;;;;;;;;4986482;28;20026;-70
2023/07/26 06:40:29;;;;;;;9.30;2.35;;;;;;;;;;4976355;28;20026;-71
2023/07/26 06:42:55;;;;;;;8.68;2.22;;;;;;;;;;4979953;28;20502;-71
2023/07/26 06:45:21;;;;;;;8.93;1.35;;;;;;;;;;4971847;28;20042;-71
2023/07/26 06:47:47;;;;;;;7.13;1.40;;;;;;;;;;4971264;28;20026;-71
2023/07/26 06:50:13;;;;;;;7.93;1.55;;;;;;;;;;4971908;28;20534;-71
2023/07/26 06:52:39;;;;;;;12.10;2.05;;;;;;;;;;4971778;28;20038;-72
2023/07/26 06:55:05;;;;;;;11.05;1.70;;;;;;;;;;4972292;28;20046;-71
2023/07/26 06:57:31;;;;;;;8.50;1.85;;;;;;;;;;4975043;28;20033;-71
2023/07/26 06:59:57;;;;;;;6.65;1.77;;;;;;;;;;4975325;28;20158;-71
2023/07/26 07:02:23;;;;;;;5.95;1.40;;;;;;;;;;4972020;28;20097;-72
2023/07/26 07:04:49;;;;;;;6.50;1.42;;;25.50;44.40;;;;;;4973483;28;20150;-71
2023/07/26 07:07:15;;;;;;;11.02;1.67;;;25.40;44.10;;;;;;4972104;28;20496;-73
2023/07/26 07:09:42;;;;;;;6.38;1.83;;;25.10;44.60;;;;;;4971910;28;20549;-72
2023/07/26 07:12:09;;;;;;;8.05;1.98;;;24.80;45.10;;;;;;4972196;28;20084;-72
2023/07/26 07:14:35;;;;;;;8.80;1.98;;;24.60;45.40;;;;;;4973555;28;20106;-71
2023/07/26 07:17:00;;;;;;;10.55;1.88;;;24.40;45.20;;;;;;4974187;28;20082;-71
2023/07/26 07:19:26;;;;;;;6.72;2.10;;;24.40;45.30;;;;;;4975281;28;20066;-72
2023/07/26 07:21:51;;;;;;;5.88;1.55;;;25.10;44.50;;;;;;4975241;28;20110;-70
2023/07/26 07:24:17;;;;;;;7.28;2.13;;;26.00;42.70;;;;;;4975148;28;20031;-71
2023/07/26 07:26:43;;;;;;;13.07;2.13;;;25.70;42.70;;;;;;4974685;28;20031;-71
2023/07/26 07:29:08;;;;;;;5.88;2.10;;;25.20;43.50;;;;;;4973336;28;20045;-72
2023/07/26 07:31:34;;;;;;;7.40;1.75;;;;;;;;;;4974810;28;20037;-71
2023/07/26 07:34:00;;;;;;;5.00;1.83;;;;;;;;;;4973500;28;20046;-71
2023/07/26 07:36:26;;;;;;;4.63;1.50;;;;;;;;;;4974591;28;20509;-71
2023/07/26 07:38:52;;;;;;;7.35;1.52;;;25.50;43.70;;;;;;4974445;28;20031;-72
2023/07/26 07:41:17;;;;;;;4.65;1.70;;;26.00;41.50;;;;;;4974916;28;20111;-72
2023/07/26 07:43:43;;;;;;;6.18;1.83;;;26.30;40.50;;;;;;4974571;28;20387;-71
2023/07/26 07:46:09;;;;;;;4.10;1.40;;;26.50;39.30;;;;;;4974396;28;20034;-72
2023/07/26 07:48:36;;;;;;;5.18;1.50;;;27.50;37.30;;;;;;4974274;28;20030;-72
2023/07/26 07:51:02;;;;;;;8.68;1.60;;;28.90;36.20;;;;;;4974642;28;20110;-72
2023/07/26 07:53:28;;;;;;;6.13;1.40;;;29.70;33.90;;;;;;4974648;28;20117;-72
2023/07/26 07:55:53;;;;;;;7.28;2.00;;;29.20;34.00;;;;;;4974511;28;20591;-72
2023/07/26 07:58:20;;;;;;;3.97;1.48;;;28.30;35.60;;;;;;4974267;28;20037;-71
2023/07/26 08:00:46;;;;;;;2.20;1.23;;;28.50;35.60;;;;;;4974351;28;20041;-72
2023/07/26 08:03:12;;;;;;;3.58;1.85;;;;;;;;;;4974718;28;20453;-72
2023/07/26 08:05:38;;;;;;;5.22;1.50;;;;;;;;;;4974070;28;20030;-72
2023/07/26 08:08:06;;;;;;;2.83;1.27;;;;;;;;;;4973905;28;20038;-73
2023/07/26 08:10:32;;;;;;;4.82;1.50;;;;;;;;;;4973963;28;20109;-71
2023/07/26 08:12:57;;;;;;;7.38;2.05;;;;;;;;;;4974209;28;20633;-72
2023/07/26 08:15:24;;;;;;;8.13;1.65;;;;;;;;;;4974213;28;20057;-71
2023/07/26 08:17:49;;;;;;;5.00;1.80;;;;;;;;;;4973853;28;20081;-71
2023/07/26 08:20:15;;;;;;;5.10;1.63;;;;;;;;;;4973856;28;20030;-71
2023/07/26 08:22:41;;;;;;;5.57;1.50;;;;;;;;;;4972688;28;20066;-71
2023/07/26 08:25:08;;;;;;;3.33;1.42;;;;;;;;;;4973796;28;20051;-71
2023/07/26 08:27:34;;;;;;;6.50;1.65;;;;;;;;;;4973391;28;20033;-72
2023/07/26 08:29:59;;;;;;;4.03;1.52;;;25.50;41.50;;;;;;4973485;28;20478;-72
2023/07/26 08:32:25;;;;;;;4.43;1.33;;;26.00;40.60;;;;;;4973820;28;20030;-72
2023/07/26 08:34:51;;;;;;;5.18;1.83;;;27.50;38.90;;;;;;4971837;28;20057;-72
2023/07/26 08:37:18;;;;;;;2.83;1.35;;;28.20;36.00;;;;;;4973199;28;20031;-71
2023/07/26 08:39:44;;;;;;;5.40;2.13;;;;;;;;;;4971875;28;20042;-72
2023/07/26 08:42:11;;;;;;;4.38;1.40;;;;;;;;;;4971811;28;20035;-72
2023/07/26 08:44:38;;;;;;;4.03;1.63;;;;;;;;;;4972159;28;20399;-72
2023/07/26 08:47:05;;;;;;;4.88;1.30;;;;;;;;;;4971265;28;20019;-71
2023/07/26 08:49:32;;;;;;;2.53;1.20;;;;;;;;;;4971689;28;20030;-72
2023/07/26 08:52:01;;;;;;;5.03;1.55;;;;;;;;;;4971728;28;20124;-71
2023/07/26 08:54:29;;;;;;;8.80;1.77;;;;;;;;;;4972881;28;20026;-71
2023/07/26 08:56:54;;;;;;;5.95;1.95;;;24.80;43.90;;;;;;4971626;28;20015;-71
2023/07/26 08:59:20;;;;;;;4.82;1.70;;;26.20;40.40;;;;;;4972128;28;20378;-71
2023/07/26 09:01:47;;;;;;;9.50;1.77;;;27.50;37.80;;;;;;4973069;28;20470;-71
2023/07/26 09:04:12;;;;;;;5.50;1.55;;;28.10;36.10;;;;;;4973162;28;20026;-70
2023/07/26 09:06:44;;;;;;;5.07;1.50;;;27.20;37.50;;;;;;4973040;28;20034;-72
2023/07/26 09:09:11;;;;;;;3.78;1.75;;;27.00;37.20;;;;;;4973104;28;20086;-72
2023/07/26 09:11:48;;;;;;;5.32;2.08;;;27.80;37.00;;;;;;4972926;28;20027;-72
2023/07/26 09:14:14;;;;;;;5.10;1.40;;;27.20;37.40;;;;;;4973138;28;20023;-71
2023/07/26 09:16:39;;;;;;;5.35;1.90;;;26.20;39.50;;;;;;4972772;28;20041;-72
2023/07/26 09:19:05;;;;;;;6.10;1.27;;;24.90;40.40;;;;;;4972460;28;20194;-71
2023/07/26 09:21:33;;;;;;;8.45;1.80;;;24.10;41.10;;;;;;4971703;28;20069;-70
2023/07/26 09:24:00;;;;;;;3.67;1.25;;;24.30;41.10;;;;;;4972856;28;20035;-70
2023/07/26 09:26:42;;;;;;;4.43;1.73;;;24.80;41.20;;;;;;4972705;28;20498;-69
2023/07/26 09:29:13;;;;;;;1.95;1.10;;;24.00;42.00;;;;;;4972729;28;20045;-69
2023/07/26 09:31:43;;;;;;;2.97;1.55;;;23.50;43.50;;;;;;4972891;28;20065;-71
2023/07/26 09:34:14;;;;;;;5.63;1.20;;;23.20;44.00;;;;;;4972599;28;20031;-71
2023/07/26 09:36:44;;;;;;;2.95;1.10;;;23.30;43.40;;;;;;4971201;28;20054;-71
2023/07/26 09:39:12;;;;;;;4.50;1.40;;;24.50;43.50;;;;;;4972868;28;20055;-71
2023/07/26 09:41:38;;;;;;;5.07;1.20;;;25.60;39.40;;;;;;4972638;28;20023;-71
2023/07/26 09:44:06;;;;;;;4.38;1.17;;;26.40;38.50;;;;;;4972503;28;20077;-72
2023/07/26 09:46:49;;;;;;;5.32;1.33;;;26.90;37.70;;;;;;4972769;28;20060;-71
2023/07/26 09:49:15;;;;;;;7.82;1.20;;;26.40;37.80;;;;;;4971689;28;20027;-72
2023/07/26 09:51:41;;;;;;;2.47;1.50;;;26.00;38.30;;;;;;4973358;28;20053;-70
2023/07/26 09:54:09;;;;;;;7.28;1.52;;;25.20;38.80;;;;;;4972639;28;20347;-70
2023/07/26 09:56:34;;;;;;;3.17;1.60;;;24.80;40.40;;;;;;4972300;28;20129;-71
2023/07/26 09:59:01;;;;;;;3.22;1.10;;;25.20;40.60;;;;;;4972217;28;20062;-71
2023/07/26 10:01:29;;;;;;;3.58;1.60;;;25.60;38.80;;;;;;4972480;28;20019;-72
2023/07/26 10:03:58;;;;;;;2.78;1.02;;;25.70;37.20;;;;;;4972417;28;20061;-71
2023/07/26 10:06:29;;;;;;;2.38;1.10;;;25.50;37.90;;;;;;4972840;28;20439;-72
2023/07/26 10:08:55;;;;;;;3.40;1.45;;;25.40;36.60;;;;;;4975117;28;20033;-71
2023/07/26 10:11:22;;;;;;;4.80;1.40;;;25.60;36.70;;;;;;4974929;28;20110;-72
2023/07/26 10:13:48;;;;;;;4.60;1.40;;;24.80;37.60;;;;;;4974610;28;20483;-72
2023/07/26 10:16:15;;;;;;;7.20;1.67;;;24.10;39.80;;;;;;4973971;28;20027;-72
2023/07/26 10:18:42;;;;;;;2.63;1.50;;;23.80;40.70;;;;;;4973163;28;20023;-71
2023/07/26 10:21:09;;;;;;;5.40;1.92;;;;;;;;;;4973554;28;20059;-71
2023/07/26 10:23:35;;;;;;;1.98;1.17;;;;;;;;;;4974561;28;20037;-71
2023/07/26 10:26:04;;;;;;;5.18;1.75;;;;;;;;;;4973305;28;20227;-72
2023/07/26 10:28:33;;;;;;;5.55;1.45;;;;;;;;;;4972902;28;20417;-71
2023/07/26 10:30:59;;;;;;;3.15;1.50;;;;;;;;;;4977341;28;20027;-72
2023/07/26 10:33:27;;;;;;;2.67;1.25;;;;;;;;;;4978277;28;20098;-71
2023/07/26 10:35:53;;;;;;;5.22;1.40;;;;;;;;;;4976547;28;20050;-71
2023/07/26 10:38:19;;;;;;;3.95;1.42;;;;;;;;;;4984352;28;20023;-72
2023/07/26 10:40:45;;;;;;;3.28;1.20;;;;;;;;;;4982443;28;20018;-71
2023/07/26 10:43:17;;;;;;;4.03;1.30;;;;;;;;;;4976691;28;20027;-71
2023/07/26 10:45:44;;;;;;;12.05;2.17;;;;;;;;;;4979344;28;20027;-71
2023/07/26 10:48:14;;;;;;;5.32;1.30;;;;;;;;;;4984677;28;20106;-71
2023/07/26 10:50:43;;;;;;;10.90;1.73;;;;;;;;;;4993527;28;20030;-70
2023/07/26 10:53:27;;;;;;;3.53;1.30;;;;;;;;;;4993661;28;20026;-70
2023/07/26 10:55:53;;;;;;;4.13;1.30;;;;;;;;;;4994657;28;20048;-71
2023/07/26 10:58:18;;;;;;;3.25;1.30;;;;;;;;;;4994120;28;20049;-69
2023/07/26 11:00:45;;;;;;;6.65;1.10;;;;;;;;;;4995059;28;20030;-72
2023/07/26 11:03:12;;;;;;;2.70;1.10;;;;;;;;;;4994862;28;20019;-71
2023/07/26 11:05:40;;;;;;;4.07;1.52;;;;;;;;;;4995265;28;20401;-71
2023/07/26 11:08:07;;;;;;;3.42;0.98;;;;;;;;;;4994505;28;20038;-71
2023/07/26 11:10:34;;;;;;;5.85;1.23;;;;;;;;;;4994926;28;20397;-70
2023/07/26 11:13:06;;;;;;;2.50;1.10;;;;;;;;;;4995271;28;20375;-71
2023/07/26 11:15:32;;;;;;;1.92;1.10;;;;;;;;;;4994868;28;20445;-71
2023/07/26 11:17:59;;;;;;;4.53;1.02;;;;;;;;;;4994670;28;20087;-71
2023/07/26 11:20:25;;;;;;;5.40;1.40;;;;;;;;;;4994519;28;20026;-71
2023/07/26 11:22:51;;;;;;;11.18;2.05;;;;;;;;;;4994075;28;20030;-71
2023/07/26 11:25:19;;;;;;;5.97;1.58;;;;;;;;;;4974382;28;20034;-71
2023/07/26 11:27:46;;;;;;;4.43;1.27;;;;;;;;;;4981831;28;20019;-71
2023/07/26 11:30:15;;;;;;;2.38;1.05;;;;;;;;;;4992939;28;20109;-71
2023/07/26 11:32:48;;;;;;;7.90;1.20;;;;;;;;;;4993852;28;20430;-71
2023/07/26 11:35:15;;;;;;;1.52;1.02;;;;;;;;;;4993727;28;20023;-71
2023/07/26 11:37:56;;;;;;;5.10;1.30;;;;;;;;;;4993356;28;20026;-71
2023/07/26 11:40:23;;;;;;;2.60;0.80;;;;;;;;;;4993480;28;20053;-71
2023/07/26 11:42:50;;;;;;;2.25;1.08;;;;;;;;;;4993614;28;20030;-71
2023/07/26 11:45:16;;;;;;;3.15;0.95;;;;;;;;;;4993841;28;20502;-72
2023/07/26 11:47:42;;;;;;;4.97;1.17;;;;;;;;;;4993262;28;20065;-71
2023/07/26 11:50:08;;;;;;;2.97;0.93;;;;;;;;;;4994204;28;20446;-71
2023/07/26 11:52:34;;;;;;;3.15;1.35;;;;;;;;;;5006443;28;20027;-72
2023/07/26 11:55:01;;;;;;;5.13;1.17;;;;;;;;;;4974239;28;20022;-72
2023/07/26 11:57:28;;;;;;;2.80;1.00;;;;;;;;;;4973996;28;20509;-72
2023/07/26 11:59:55;;;;;;;1.90;1.02;;;;;;;;;;4965226;28;20062;-73
2023/07/26 12:02:22;;;;;;;7.55;1.48;;;;;;;;;;4967145;28;20038;-71
2023/07/26 12:05:07;;;;;;;3.08;1.10;;;;;;;;;;4972866;28;20065;-72
2023/07/26 12:07:33;;;;;;;3.13;1.00;;;;;;;;;;4976434;28;20030;-72
2023/07/26 12:09:59;;;;;;;3.47;1.33;;;;;;;;;;4974128;28;20031;-71
2023/07/26 12:12:25;;;;;;;3.63;0.95;;;;;;;;;;4974073;28;20049;-72
2023/07/26 12:14:51;;;;;;;2.38;0.73;;;;;;;;;;4973822;28;20034;-71
2023/07/26 12:17:17;;;;;;;3.05;1.05;;;;;;;;;;4973731;28;20077;-71
2023/07/26 12:19:46;;;;;;;2.80;1.10;;;;;;;;;;4973975;28;20101;-72
2023/07/26 12:22:12;;;;;;;1.25;0.60;;;;;;;;;;4973704;28;20027;-72
2023/07/26 12:24:54;;;;;;;3.22;1.00;;;;;;;;;;4973892;28;20027;-72
2023/07/26 12:27:20;;;;;;;3.83;0.85;;;;;;;;;;4973394;28;20031;-72
2023/07/26 12:29:47;;;;;;;4.45;0.90;;;;;;;;;;4973502;28;20629;-70
2023/07/26 12:32:17;;;;;;;2.78;1.00;;;;;;;;;;4973626;28;20019;-70
2023/07/26 12:34:43;;;;;;;2.92;1.05;;;;;;;;;;4973702;28;20126;-72
2023/07/26 12:37:09;;;;;;;2.35;0.93;;;;;;;;;;4973465;28;20030;-72
2023/07/26 12:39:39;;;;;;;5.53;0.80;;;;;;;;;;4973425;28;20031;-71
2023/07/26 12:42:05;;;;;;;1.40;0.98;;;;;;;;;;4973306;28;20050;-71
2023/07/26 12:44:31;;;;;;;4.35;1.05;;;;;;;;;;4971785;28;20030;-72
2023/07/26 12:47:00;;;;;;;2.40;0.90;;;;;;;;;;4972823;28;20029;-72
2023/07/26 12:49:26;;;;;;;1.95;0.98;;;;;;;;;;4971412;28;20010;-70
2023/07/26 12:51:52;;;;;;;5.97;1.40;;;;;;;;;;4972093;28;20022;-69
2023/07/26 12:54:19;;;;;;;2.25;1.30;;;;;;;;;;4980511;28;20021;-71
2023/07/26 12:56:45;;;;;;;2.50;1.20;;;;;;;;;;4981362;28;20027;-71
2023/07/26 12:59:11;;;;;;;1.65;1.08;;;;;;;;;;4981297;28;20031;-72
2023/07/26 13:01:37;;;;;;;3.13;0.90;;;;;;;;;;4973299;28;20058;-71
2023/07/26 13:04:03;;;;;;;3.47;0.88;;;;;;;;;;4974206;28;20023;-72
2023/07/26 13:06:29;;;;;;;2.90;1.13;;;;;;;;;;4978494;28;20077;-72
2023/07/26 13:08:55;;;;;;;2.15;0.80;;;;;;;;;;4972930;28;20035;-72
2023/07/26 13:11:21;;;;;;;2.47;1.17;;;;;;;;;;4973599;28;20026;-72
2023/07/26 13:13:47;;;;;;;5.47;1.42;;;;;;;;;;4973687;28;20118;-72
2023/07/26 13:16:13;;;;;;;2.60;1.10;;;;;;;;;;4973110;28;20106;-72
2023/07/26 13:18:39;;;;;;;3.75;1.35;;;;;;;;;;4972715;28;20509;-72
2023/07/26 13:21:05;;;;;;;4.03;1.65;;;;;;;;;;4973201;28;20031;-71
2023/07/26 13:23:31;;;;;;;4.43;2.17;;;;;;;;;;4972977;28;20038;-72
2023/07/26 13:25:57;;;;;;;4.82;2.00;;;;;;;;;;4971852;28;20038;-74
2023/07/26 13:28:23;;;;;;;7.88;2.25;;;;;;;;;;4972715;28;20116;-72
2023/07/26 13:30:49;;;;;;;5.55;2.25;;;;;;;;;;4972996;28;20027;-72
2023/07/26 13:33:15;;;;;;;7.97;2.25;;;;;;;;;;4973069;28;20031;-72
2023/07/26 13:35:41;;;;;;;6.05;2.25;;;;;;;;;;4979135;28;20057;-73
2023/07/26 13:38:07;;;;;;;10.45;2.70;;;;;;;;;;4982166;28;20490;-73
2023/07/26 13:40:33;;;;;;;3.97;2.20;;;;;;;;;;4991441;28;20033;-72
2023/07/26 13:43:00;;;;;;;4.75;1.88;;;;;;;;;;4991747;28;20121;-73
2023/07/26 13:45:26;;;;;;;8.68;2.00;;;;;;;;;;4991542;28;20077;-73
2023/07/26 13:47:52;;;;;;;3.13;1.55;;;;;;;;;;4990383;28;20054;-72
2023/07/26 13:50:18;;;;;;;5.28;2.00;;;;;;;;;;4970106;28;20383;-72
2023/07/26 13:52:44;;;;;;;5.10;1.55;;;;;;;;;;4970642;28;20023;-72
2023/07/26 13:55:10;;;;;;;7.28;1.77;;;;;;;;;;4970687;28;20093;-72
2023/07/26 13:57:36;;;;;;;2.03;1.52;;;;;;;;;;4970532;28;20360;-71
2023/07/26 14:00:03;;;;;;;1.95;1.38;;;;;;;;;;4970784;28;20051;-71
2023/07/26 14:02:29;;;;;;;0.85;0.80;;;;;;;;;;4971750;28;20402;-72
2023/07/26 14:04:55;;;;;;;1.75;0.93;;;;;;;;;;4973936;28;20105;-72
2023/07/26 14:07:21;;;;;;;9.95;1.85;;;;;;;;;;4976006;28;20115;-71
2023/07/26 14:09:47;;;;;;;1.30;0.63;;;;;;;;;;4976552;28;20046;-72
2023/07/26 14:12:15;;;;;;;3.22;0.80;;;;;;;;;;4976541;28;20034;-72